sensor_id;sensor_type;location;lat;lon;timestamp;temperature;humidity
53880;DHT22;39791;53.184;5.486;2023-06-10T00:00:43;17.20;46.70
53880;DHT22;39791;53.184;5.486;2023-06-10T00:03:09;17.20;27.00
53880;DHT22;39791;53.184;5.486;2023-06-10T00:05:35;17.10;10.20
53880;DHT22;39791;53.184;5.486;2023-06-10T00:08:04;17.20;1.00
53880;DHT22;39791;53.184;5.486;2023-06-10T00:10:35;17.10;1.00
53880;DHT22;39791;53.184;5.486;2023-06-10T00:13:05;17.20;1.00
53880;DHT22;39791;53.184;5.486;2023-06-10T00:15:33;17.10;1.00
53880;DHT22;39791;53.184;5.486;2023-06-10T00:17:58;17.20;1.00
53880;DHT22;39791;53.184;5.486;2023-06-10T00:20:24;17.20;1.00
53880;DHT22;39791;53.184;5.486;2023-06-10T00:22:50;17.20;1.00
53880;DHT22;39791;53.184;5.486;2023-06-10T00:25:16;17.20;1.00
53880;DHT22;39791;53.184;5.486;2023-06-10T00:27:42;17.20;1.00
53880;DHT22;39791;53.184;5.486;2023-06-10T00:30:08;17.20;1.00
53880;DHT22;39791;53.184;5.486;2023-06-10T00:32:34;17.10;1.00
53880;DHT22;39791;53.184;5.486;2023-06-10T00:35:01;17.20;1.00
53880;DHT22;39791;53.184;5.486;2023-06-10T00:37:26;17.10;99.90
53880;DHT22;39791;53.184;5.486;2023-06-10T00:39:52;17.20;99.90
53880;DHT22;39791;53.184;5.486;2023-06-10T00:42:18;17.20;99.90
53880;DHT22;39791;53.184;5.486;2023-06-10T00:44:44;17.20;99.90
53880;DHT22;39791;53.184;5.486;2023-06-10T00:47:10;17.30;99.90
53880;DHT22;39791;53.184;5.486;2023-06-10T00:49:35;17.20;99.90
53880;DHT22;39791;53.184;5.486;2023-06-10T00:52:03;17.20;99.90
53880;DHT22;39791;53.184;5.486;2023-06-10T00:54:29;17.20;99.90
53880;DHT22;39791;53.184;5.486;2023-06-10T00:56:56;17.20;99.90
53880;DHT22;39791;53.184;5.486;2023-06-10T00:59:23;17.20;99.90
53880;DHT22;39791;53.184;5.486;2023-06-10T01:01:50;17.20;99.90
53880;DHT22;39791;53.184;5.486;2023-06-10T01:04:17;17.30;99.90
53880;DHT22;39791;53.184;5.486;2023-06-10T01:09:28;17.20;99.90
53880;DHT22;39791;53.184;5.486;2023-06-10T01:14:29;17.40;99.90
53880;DHT22;39791;53.184;5.486;2023-06-10T01:16:57;17.40;99.90
53880;DHT22;39791;53.184;5.486;2023-06-10T01:19:23;17.40;99.90
53880;DHT22;39791;53.184;5.486;2023-06-10T01:21:50;17.40;99.90
53880;DHT22;39791;53.184;5.486;2023-06-10T01:24:17;17.30;99.90
53880;DHT22;39791;53.184;5.486;2023-06-10T01:26:44;17.20;99.90
53880;DHT22;39791;53.184;5.486;2023-06-10T01:29:17;17.10;99.90
53880;DHT22;39791;53.184;5.486;2023-06-10T01:31:51;17.10;99.90
53880;DHT22;39791;53.184;5.486;2023-06-10T01:34:21;17.10;99.90
53880;DHT22;39791;53.184;5.486;2023-06-10T01:36:49;16.90;99.90
53880;DHT22;39791;53.184;5.486;2023-06-10T01:39:17;16.90;99.90
53880;DHT22;39791;53.184;5.486;2023-06-10T01:41:44;16.90;99.90
53880;DHT22;39791;53.184;5.486;2023-06-10T01:44:10;16.80;99.90
53880;DHT22;39791;53.184;5.486;2023-06-10T01:46:36;16.80;99.90
53880;DHT22;39791;53.184;5.486;2023-06-10T01:49:01;16.80;99.90
53880;DHT22;39791;53.184;5.486;2023-06-10T01:51:27;16.80;99.90
53880;DHT22;39791;53.184;5.486;2023-06-10T01:53:53;16.70;99.90
53880;DHT22;39791;53.184;5.486;2023-06-10T01:56:18;16.60;99.90
53880;DHT22;39791;53.184;5.486;2023-06-10T01:58:48;16.60;99.90
53880;DHT22;39791;53.184;5.486;2023-06-10T02:01:14;16.60;99.90
53880;DHT22;39791;53.184;5.486;2023-06-10T02:03:40;16.50;99.90
53880;DHT22;39791;53.184;5.486;2023-06-10T02:06:05;16.50;99.90
53880;DHT22;39791;53.184;5.486;2023-06-10T02:08:31;16.50;99.90
53880;DHT22;39791;53.184;5.486;2023-06-10T02:10:56;16.40;99.90
53880;DHT22;39791;53.184;5.486;2023-06-10T02:13:22;16.50;99.90
53880;DHT22;39791;53.184;5.486;2023-06-10T02:15:48;16.40;99.90
53880;DHT22;39791;53.184;5.486;2023-06-10T02:18:13;16.40;99.90
53880;DHT22;39791;53.184;5.486;2023-06-10T02:20:39;16.40;99.90
53880;DHT22;39791;53.184;5.486;2023-06-10T02:23:04;16.30;99.90
53880;DHT22;39791;53.184;5.486;2023-06-10T02:25:30;16.30;99.90
53880;DHT22;39791;53.184;5.486;2023-06-10T02:27:56;16.30;99.90
53880;DHT22;39791;53.184;5.486;2023-06-10T02:30:22;16.30;99.90
53880;DHT22;39791;53.184;5.486;2023-06-10T02:32:47;16.20;99.90
53880;DHT22;39791;53.184;5.486;2023-06-10T02:35:17;16.10;99.90
53880;DHT22;39791;53.184;5.486;2023-06-10T02:37:43;16.00;1.00
53880;DHT22;39791;53.184;5.486;2023-06-10T02:40:09;15.90;1.00
53880;DHT22;39791;53.184;5.486;2023-06-10T02:42:36;15.80;1.00
53880;DHT22;39791;53.184;5.486;2023-06-10T02:45:02;15.80;1.00
53880;DHT22;39791;53.184;5.486;2023-06-10T02:47:27;15.60;1.00
53880;DHT22;39791;53.184;5.486;2023-06-10T02:49:53;15.70;1.00
53880;DHT22;39791;53.184;5.486;2023-06-10T02:52:18;15.60;1.00
53880;DHT22;39791;53.184;5.486;2023-06-10T02:54:44;15.50;1.00
53880;DHT22;39791;53.184;5.486;2023-06-10T02:57:11;15.50;1.00
53880;DHT22;39791;53.184;5.486;2023-06-10T02:59:36;15.40;1.00
53880;DHT22;39791;53.184;5.486;2023-06-10T03:02:02;15.50;1.00
53880;DHT22;39791;53.184;5.486;2023-06-10T03:04:28;15.40;1.00
53880;DHT22;39791;53.184;5.486;2023-06-10T03:06:54;15.50;1.00
53880;DHT22;39791;53.184;5.486;2023-06-10T03:09:20;15.40;1.00
53880;DHT22;39791;53.184;5.486;2023-06-10T03:11:45;15.40;1.00
53880;DHT22;39791;53.184;5.486;2023-06-10T03:14:11;15.40;1.00
53880;DHT22;39791;53.184;5.486;2023-06-10T03:16:37;15.80;1.90
53880;DHT22;39791;53.184;5.486;2023-06-10T03:19:06;15.20;12.00
53880;DHT22;39791;53.184;5.486;2023-06-10T03:21:33;15.30;19.40
53880;DHT22;39791;53.184;5.486;2023-06-10T03:23:59;15.30;34.90
53880;DHT22;39791;53.184;5.486;2023-06-10T03:26:26;15.60;62.60
53880;DHT22;39791;53.184;5.486;2023-06-10T03:28:53;15.70;86.90
53880;DHT22;39791;53.184;5.486;2023-06-10T03:31:18;15.30;92.10
53880;DHT22;39791;53.184;5.486;2023-06-10T03:33:44;15.30;98.00
53880;DHT22;39791;53.184;5.486;2023-06-10T03:36:10;15.40;99.90
53880;DHT22;39791;53.184;5.486;2023-06-10T03:38:36;15.30;99.90
53880;DHT22;39791;53.184;5.486;2023-06-10T03:41:02;15.30;99.90
53880;DHT22;39791;53.184;5.486;2023-06-10T03:43:27;15.30;99.90
53880;DHT22;39791;53.184;5.486;2023-06-10T03:45:53;15.40;99.90
53880;DHT22;39791;53.184;5.486;2023-06-10T03:48:19;15.40;99.90
53880;DHT22;39791;53.184;5.486;2023-06-10T03:50:44;15.60;99.90
53880;DHT22;39791;53.184;5.486;2023-06-10T03:53:10;15.50;99.90
53880;DHT22;39791;53.184;5.486;2023-06-10T03:55:35;15.40;99.90
53880;DHT22;39791;53.184;5.486;2023-06-10T03:58:01;15.50;99.90
53880;DHT22;39791;53.184;5.486;2023-06-10T04:00:27;15.50;99.90
53880;DHT22;39791;53.184;5.486;2023-06-10T04:02:54;15.50;99.90
53880;DHT22;39791;53.184;5.486;2023-06-10T04:05:23;15.50;99.90
53880;DHT22;39791;53.184;5.486;2023-06-10T04:07:49;15.60;99.90
53880;DHT22;39791;53.184;5.486;2023-06-10T04:10:15;15.60;99.90
53880;DHT22;39791;53.184;5.486;2023-06-10T04:12:41;15.60;99.90
53880;DHT22;39791;53.184;5.486;2023-06-10T04:15:07;15.60;99.90
53880;DHT22;39791;53.184;5.486;2023-06-10T04:17:33;15.60;99.90
53880;DHT22;39791;53.184;5.486;2023-06-10T04:19:58;15.70;99.90
53880;DHT22;39791;53.184;5.486;2023-06-10T04:22:25;15.70;99.90
53880;DHT22;39791;53.184;5.486;2023-06-10T04:24:51;15.70;99.90
53880;DHT22;39791;53.184;5.486;2023-06-10T04:27:17;15.70;99.90
53880;DHT22;39791;53.184;5.486;2023-06-10T04:29:42;15.70;99.90
53880;DHT22;39791;53.184;5.486;2023-06-10T04:32:08;15.70;99.90
53880;DHT22;39791;53.184;5.486;2023-06-10T04:34:34;15.60;99.90
53880;DHT22;39791;53.184;5.486;2023-06-10T04:37:00;15.60;99.90
53880;DHT22;39791;53.184;5.486;2023-06-10T04:39:25;15.70;99.90
53880;DHT22;39791;53.184;5.486;2023-06-10T04:41:51;15.70;99.90
53880;DHT22;39791;53.184;5.486;2023-06-10T04:44:17;15.60;99.90
53880;DHT22;39791;53.184;5.486;2023-06-10T04:46:42;15.60;99.90
53880;DHT22;39791;53.184;5.486;2023-06-10T04:49:08;15.60;99.90
53880;DHT22;39791;53.184;5.486;2023-06-10T04:51:33;15.70;99.90
53880;DHT22;39791;53.184;5.486;2023-06-10T04:53:59;15.70;99.90
53880;DHT22;39791;53.184;5.486;2023-06-10T04:56:29;15.70;99.90
53880;DHT22;39791;53.184;5.486;2023-06-10T04:58:56;15.70;99.90
53880;DHT22;39791;53.184;5.486;2023-06-10T05:01:22;15.80;99.90
53880;DHT22;39791;53.184;5.486;2023-06-10T05:03:47;15.90;99.90
53880;DHT22;39791;53.184;5.486;2023-06-10T05:06:13;15.90;99.90
53880;DHT22;39791;53.184;5.486;2023-06-10T05:08:38;15.90;99.90
53880;DHT22;39791;53.184;5.486;2023-06-10T05:11:04;16.00;99.90
53880;DHT22;39791;53.184;5.486;2023-06-10T05:13:29;16.00;99.90
53880;DHT22;39791;53.184;5.486;2023-06-10T05:15:55;16.20;99.90
53880;DHT22;39791;53.184;5.486;2023-06-10T05:18:21;16.20;99.90
53880;DHT22;39791;53.184;5.486;2023-06-10T05:20:46;16.30;99.90
53880;DHT22;39791;53.184;5.486;2023-06-10T05:23:12;16.70;99.90
53880;DHT22;39791;53.184;5.486;2023-06-10T05:25:37;16.40;99.90
53880;DHT22;39791;53.184;5.486;2023-06-10T05:28:03;16.40;99.90
53880;DHT22;39791;53.184;5.486;2023-06-10T05:30:29;16.50;99.90
53880;DHT22;39791;53.184;5.486;2023-06-10T05:32:54;16.50;99.90
53880;DHT22;39791;53.184;5.486;2023-06-10T05:35:21;16.50;99.90
53880;DHT22;39791;53.184;5.486;2023-06-10T05:37:47;16.60;99.90
53880;DHT22;39791;53.184;5.486;2023-06-10T05:40:13;16.60;99.90
53880;DHT22;39791;53.184;5.486;2023-06-10T05:42:38;16.70;99.90
53880;DHT22;39791;53.184;5.486;2023-06-10T05:45:05;16.70;99.90
53880;DHT22;39791;53.184;5.486;2023-06-10T05:47:32;16.80;99.90
53880;DHT22;39791;53.184;5.486;2023-06-10T05:49:57;16.80;99.90
53880;DHT22;39791;53.184;5.486;2023-06-10T05:52:23;17.00;99.90
53880;DHT22;39791;53.184;5.486;2023-06-10T05:54:49;17.00;99.90
53880;DHT22;39791;53.184;5.486;2023-06-10T05:57:15;17.00;99.90
53880;DHT22;39791;53.184;5.486;2023-06-10T05:59:41;17.10;99.90
53880;DHT22;39791;53.184;5.486;2023-06-10T06:02:06;17.20;99.90
53880;DHT22;39791;53.184;5.486;2023-06-10T06:04:33;17.30;99.90
53880;DHT22;39791;53.184;5.486;2023-06-10T06:06:59;17.50;99.90
53880;DHT22;39791;53.184;5.486;2023-06-10T06:09:24;17.50;99.90
53880;DHT22;39791;53.184;5.486;2023-06-10T06:11:50;17.60;99.90
53880;DHT22;39791;53.184;5.486;2023-06-10T06:14:15;17.60;99.90
53880;DHT22;39791;53.184;5.486;2023-06-10T06:16:41;17.80;99.90
53880;DHT22;39791;53.184;5.486;2023-06-10T06:19:06;18.10;99.90
53880;DHT22;39791;53.184;5.486;2023-06-10T06:21:32;18.00;99.90
53880;DHT22;39791;53.184;5.486;2023-06-10T06:23:59;18.10;1.00
53880;DHT22;39791;53.184;5.486;2023-06-10T06:26:24;18.20;1.00
53880;DHT22;39791;53.184;5.486;2023-06-10T06:28:50;18.70;1.00
53880;DHT22;39791;53.184;5.486;2023-06-10T06:31:16;18.50;1.00
53880;DHT22;39791;53.184;5.486;2023-06-10T06:33:41;18.70;99.90
53880;DHT22;39791;53.184;5.486;2023-06-10T06:36:07;18.80;99.90
53880;DHT22;39791;53.184;5.486;2023-06-10T06:38:33;18.90;99.90
53880;DHT22;39791;53.184;5.486;2023-06-10T06:40:58;19.10;99.90
53880;DHT22;39791;53.184;5.486;2023-06-10T06:43:28;19.30;99.90
53880;DHT22;39791;53.184;5.486;2023-06-10T06:45:55;19.60;99.90
53880;DHT22;39791;53.184;5.486;2023-06-10T06:48:21;19.70;99.90
53880;DHT22;39791;53.184;5.486;2023-06-10T06:50:46;19.70;99.90
53880;DHT22;39791;53.184;5.486;2023-06-10T06:53:12;19.90;99.90
53880;DHT22;39791;53.184;5.486;2023-06-10T06:55:37;20.40;99.90
53880;DHT22;39791;53.184;5.486;2023-06-10T06:58:03;20.40;99.90
53880;DHT22;39791;53.184;5.486;2023-06-10T07:00:30;20.60;99.90
53880;DHT22;39791;53.184;5.486;2023-06-10T07:02:55;20.90;99.90
53880;DHT22;39791;53.184;5.486;2023-06-10T07:05:22;20.90;99.90
53880;DHT22;39791;53.184;5.486;2023-06-10T07:07:48;21.00;99.90
53880;DHT22;39791;53.184;5.486;2023-06-10T07:10:22;21.00;99.90
53880;DHT22;39791;53.184;5.486;2023-06-10T07:12:48;21.10;99.90
53880;DHT22;39791;53.184;5.486;2023-06-10T07:15:14;21.40;99.90
53880;DHT22;39791;53.184;5.486;2023-06-10T07:17:40;21.60;99.90
53880;DHT22;39791;53.184;5.486;2023-06-10T07:20:05;21.70;97.50
53880;DHT22;39791;53.184;5.486;2023-06-10T07:22:31;21.80;91.30
53880;DHT22;39791;53.184;5.486;2023-06-10T07:24:57;22.00;82.00
53880;DHT22;39791;53.184;5.486;2023-06-10T07:27:23;21.90;67.80
53880;DHT22;39791;53.184;5.486;2023-06-10T07:29:50;21.90;52.30
53880;DHT22;39791;53.184;5.486;2023-06-10T07:32:15;22.10;57.40
53880;DHT22;39791;53.184;5.486;2023-06-10T07:34:41;22.20;31.00
53880;DHT22;39791;53.184;5.486;2023-06-10T07:37:06;22.20;14.60
53880;DHT22;39791;53.184;5.486;2023-06-10T07:39:32;22.30;7.90
53880;DHT22;39791;53.184;5.486;2023-06-10T07:41:58;22.40;9.60
53880;DHT22;39791;53.184;5.486;2023-06-10T07:44:23;22.60;1.00
53880;DHT22;39791;53.184;5.486;2023-06-10T07:46:49;22.90;1.00
53880;DHT22;39791;53.184;5.486;2023-06-10T07:49:15;22.90;1.00
53880;DHT22;39791;53.184;5.486;2023-06-10T07:51:40;23.00;1.00
53880;DHT22;39791;53.184;5.486;2023-06-10T07:54:06;23.10;1.00
53880;DHT22;39791;53.184;5.486;2023-06-10T07:56:31;23.20;1.00
53880;DHT22;39791;53.184;5.486;2023-06-10T07:58:58;23.30;1.00
53880;DHT22;39791;53.184;5.486;2023-06-10T08:01:24;23.40;1.00
53880;DHT22;39791;53.184;5.486;2023-06-10T08:03:50;23.40;1.00
53880;DHT22;39791;53.184;5.486;2023-06-10T08:06:15;23.60;1.00
53880;DHT22;39791;53.184;5.486;2023-06-10T08:08:42;23.80;1.00
53880;DHT22;39791;53.184;5.486;2023-06-10T08:11:12;23.90;1.00
53880;DHT22;39791;53.184;5.486;2023-06-10T08:13:38;24.00;1.00
53880;DHT22;39791;53.184;5.486;2023-06-10T08:16:04;24.20;1.00
53880;DHT22;39791;53.184;5.486;2023-06-10T08:18:29;24.40;1.00
53880;DHT22;39791;53.184;5.486;2023-06-10T08:20:55;24.60;1.00
53880;DHT22;39791;53.184;5.486;2023-06-10T08:23:21;24.80;1.00
53880;DHT22;39791;53.184;5.486;2023-06-10T08:25:46;24.90;1.00
53880;DHT22;39791;53.184;5.486;2023-06-10T08:28:12;24.70;1.00
53880;DHT22;39791;53.184;5.486;2023-06-10T08:30:37;24.70;1.00
53880;DHT22;39791;53.184;5.486;2023-06-10T08:33:03;24.10;1.00
53880;DHT22;39791;53.184;5.486;2023-06-10T08:35:29;24.70;1.00
53880;DHT22;39791;53.184;5.486;2023-06-10T08:37:54;24.80;1.00
53880;DHT22;39791;53.184;5.486;2023-06-10T08:40:20;25.00;1.00
53880;DHT22;39791;53.184;5.486;2023-06-10T08:42:53;25.10;1.00
53880;DHT22;39791;53.184;5.486;2023-06-10T08:45:24;25.30;1.00
53880;DHT22;39791;53.184;5.486;2023-06-10T08:47:53;25.70;1.00
53880;DHT22;39791;53.184;5.486;2023-06-10T08:50:19;25.70;1.00
53880;DHT22;39791;53.184;5.486;2023-06-10T08:52:48;25.70;1.00
53880;DHT22;39791;53.184;5.486;2023-06-10T08:55:18;25.50;1.00
53880;DHT22;39791;53.184;5.486;2023-06-10T08:57:48;25.50;1.00
53880;DHT22;39791;53.184;5.486;2023-06-10T09:00:16;25.50;1.00
53880;DHT22;39791;53.184;5.486;2023-06-10T09:02:42;25.80;1.00
53880;DHT22;39791;53.184;5.486;2023-06-10T09:05:09;26.10;1.00
53880;DHT22;39791;53.184;5.486;2023-06-10T09:07:35;26.40;1.00
53880;DHT22;39791;53.184;5.486;2023-06-10T09:10:02;26.40;1.00
53880;DHT22;39791;53.184;5.486;2023-06-10T09:12:29;26.30;1.00
53880;DHT22;39791;53.184;5.486;2023-06-10T09:14:55;26.10;1.00
53880;DHT22;39791;53.184;5.486;2023-06-10T09:17:21;25.90;1.00
53880;DHT22;39791;53.184;5.486;2023-06-10T09:19:47;25.90;99.90
53880;DHT22;39791;53.184;5.486;2023-06-10T09:22:14;25.70;99.90
53880;DHT22;39791;53.184;5.486;2023-06-10T09:24:40;25.70;99.90
53880;DHT22;39791;53.184;5.486;2023-06-10T09:27:08;25.90;99.90
53880;DHT22;39791;53.184;5.486;2023-06-10T09:29:47;25.90;99.90
53880;DHT22;39791;53.184;5.486;2023-06-10T09:32:13;25.90;99.90
53880;DHT22;39791;53.184;5.486;2023-06-10T09:34:39;26.00;99.90
53880;DHT22;39791;53.184;5.486;2023-06-10T09:37:05;26.00;99.90
53880;DHT22;39791;53.184;5.486;2023-06-10T09:39:31;26.30;99.90
53880;DHT22;39791;53.184;5.486;2023-06-10T09:41:57;26.50;99.90
53880;DHT22;39791;53.184;5.486;2023-06-10T09:44:23;26.70;99.90
53880;DHT22;39791;53.184;5.486;2023-06-10T09:46:50;26.70;99.90
53880;DHT22;39791;53.184;5.486;2023-06-10T09:49:17;26.50;99.90
53880;DHT22;39791;53.184;5.486;2023-06-10T09:51:53;26.30;99.90
53880;DHT22;39791;53.184;5.486;2023-06-10T09:54:22;26.50;99.90
53880;DHT22;39791;53.184;5.486;2023-06-10T09:56:49;26.50;99.90
53880;DHT22;39791;53.184;5.486;2023-06-10T09:59:15;26.50;99.90
53880;DHT22;39791;53.184;5.486;2023-06-10T10:01:41;26.60;99.90
53880;DHT22;39791;53.184;5.486;2023-06-10T10:04:07;26.60;99.90
53880;DHT22;39791;53.184;5.486;2023-06-10T10:06:34;26.70;99.90
53880;DHT22;39791;53.184;5.486;2023-06-10T10:09:00;26.70;99.90
53880;DHT22;39791;53.184;5.486;2023-06-10T10:11:27;26.70;99.90
53880;DHT22;39791;53.184;5.486;2023-06-10T10:13:53;26.80;99.90
53880;DHT22;39791;53.184;5.486;2023-06-10T10:16:30;26.90;99.90
53880;DHT22;39791;53.184;5.486;2023-06-10T10:19:10;26.80;99.90
53880;DHT22;39791;53.184;5.486;2023-06-10T10:21:43;26.90;99.90
53880;DHT22;39791;53.184;5.486;2023-06-10T10:24:16;27.00;99.90
53880;DHT22;39791;53.184;5.486;2023-06-10T10:26:43;27.10;99.90
53880;DHT22;39791;53.184;5.486;2023-06-10T10:29:24;27.00;99.90
53880;DHT22;39791;53.184;5.486;2023-06-10T10:31:51;26.90;99.90
53880;DHT22;39791;53.184;5.486;2023-06-10T10:34:25;27.00;99.90
53880;DHT22;39791;53.184;5.486;2023-06-10T10:36:54;27.00;99.90
53880;DHT22;39791;53.184;5.486;2023-06-10T10:39:20;26.60;99.90
53880;DHT22;39791;53.184;5.486;2023-06-10T10:41:47;26.70;99.90
53880;DHT22;39791;53.184;5.486;2023-06-10T10:44:14;26.60;99.90
53880;DHT22;39791;53.184;5.486;2023-06-10T10:46:52;26.50;99.90
53880;DHT22;39791;53.184;5.486;2023-06-10T10:49:20;26.50;99.90
53880;DHT22;39791;53.184;5.486;2023-06-10T10:51:54;26.50;99.90
53880;DHT22;39791;53.184;5.486;2023-06-10T10:54:31;26.40;99.90
53880;DHT22;39791;53.184;5.486;2023-06-10T10:57:13;26.30;99.90
53880;DHT22;39791;53.184;5.486;2023-06-10T10:59:46;26.50;99.90
53880;DHT22;39791;53.184;5.486;2023-06-10T11:03:04;26.30;99.90
53880;DHT22;39791;53.184;5.486;2023-06-10T11:05:05;26.40;99.90
53880;DHT22;39791;53.184;5.486;2023-06-10T11:07:32;26.30;99.90
53880;DHT22;39791;53.184;5.486;2023-06-10T11:10:12;26.30;99.90
53880;DHT22;39791;53.184;5.486;2023-06-10T11:15:09;26.30;99.90
53880;DHT22;39791;53.184;5.486;2023-06-10T11:17:35;26.30;99.90
53880;DHT22;39791;53.184;5.486;2023-06-10T11:20:01;26.20;99.90
53880;DHT22;39791;53.184;5.486;2023-06-10T11:22:26;26.20;99.90
53880;DHT22;39791;53.184;5.486;2023-06-10T11:24:52;26.20;99.90
53880;DHT22;39791;53.184;5.486;2023-06-10T11:27:22;26.30;99.90
53880;DHT22;39791;53.184;5.486;2023-06-10T11:30:20;26.30;99.90
53880;DHT22;39791;53.184;5.486;2023-06-10T11:32:51;26.30;99.90
53880;DHT22;39791;53.184;5.486;2023-06-10T11:35:18;26.20;99.90
53880;DHT22;39791;53.184;5.486;2023-06-10T11:37:44;26.20;99.90
53880;DHT22;39791;53.184;5.486;2023-06-10T11:40:11;26.20;99.90
53880;DHT22;39791;53.184;5.486;2023-06-10T11:42:44;26.10;99.90
53880;DHT22;39791;53.184;5.486;2023-06-10T11:45:14;26.10;99.90
53880;DHT22;39791;53.184;5.486;2023-06-10T11:47:55;26.00;99.90
53880;DHT22;39791;53.184;5.486;2023-06-10T11:50:31;26.00;99.90
53880;DHT22;39791;53.184;5.486;2023-06-10T11:52:57;26.00;99.90
53880;DHT22;39791;53.184;5.486;2023-06-10T11:55:25;26.10;99.90
53880;DHT22;39791;53.184;5.486;2023-06-10T11:57:51;26.20;99.90
53880;DHT22;39791;53.184;5.486;2023-06-10T12:00:23;26.30;99.90
53880;DHT22;39791;53.184;5.486;2023-06-10T12:02:58;26.30;99.90
53880;DHT22;39791;53.184;5.486;2023-06-10T12:05:24;26.30;99.90
53880;DHT22;39791;53.184;5.486;2023-06-10T12:07:58;26.30;99.90
53880;DHT22;39791;53.184;5.486;2023-06-10T12:10:31;26.40;99.90
53880;DHT22;39791;53.184;5.486;2023-06-10T12:12:56;26.50;99.90
53880;DHT22;39791;53.184;5.486;2023-06-10T12:15:25;26.60;99.90
53880;DHT22;39791;53.184;5.486;2023-06-10T12:17:51;26.50;99.90
53880;DHT22;39791;53.184;5.486;2023-06-10T12:20:27;26.50;99.90
53880;DHT22;39791;53.184;5.486;2023-06-10T12:22:53;26.40;99.90
53880;DHT22;39791;53.184;5.486;2023-06-10T12:25:25;26.30;99.90
53880;DHT22;39791;53.184;5.486;2023-06-10T12:27:52;26.30;99.90
53880;DHT22;39791;53.184;5.486;2023-06-10T12:30:26;26.20;99.90
53880;DHT22;39791;53.184;5.486;2023-06-10T12:32:52;26.00;99.90
53880;DHT22;39791;53.184;5.486;2023-06-10T12:35:25;25.90;99.90
53880;DHT22;39791;53.184;5.486;2023-06-10T12:38:02;25.90;99.90
53880;DHT22;39791;53.184;5.486;2023-06-10T12:40:34;25.80;99.90
53880;DHT22;39791;53.184;5.486;2023-06-10T12:43:01;25.70;1.00
53880;DHT22;39791;53.184;5.486;2023-06-10T12:45:37;25.50;1.00
53880;DHT22;39791;53.184;5.486;2023-06-10T12:50:35;25.50;1.00
53880;DHT22;39791;53.184;5.486;2023-06-10T12:53:03;25.50;1.00
53880;DHT22;39791;53.184;5.486;2023-06-10T12:55:28;25.40;1.00
53880;DHT22;39791;53.184;5.486;2023-06-10T12:57:54;25.60;1.00
53880;DHT22;39791;53.184;5.486;2023-06-10T13:00:20;25.20;1.00
53880;DHT22;39791;53.184;5.486;2023-06-10T13:02:48;25.20;1.00
53880;DHT22;39791;53.184;5.486;2023-06-10T13:05:14;25.00;1.00
53880;DHT22;39791;53.184;5.486;2023-06-10T13:07:39;24.80;1.00
53880;DHT22;39791;53.184;5.486;2023-06-10T13:10:07;24.80;1.00
53880;DHT22;39791;53.184;5.486;2023-06-10T13:12:33;24.80;1.00
53880;DHT22;39791;53.184;5.486;2023-06-10T13:14:58;24.70;1.00
53880;DHT22;39791;53.184;5.486;2023-06-10T13:17:24;24.70;1.00
53880;DHT22;39791;53.184;5.486;2023-06-10T13:19:50;24.60;1.00
53880;DHT22;39791;53.184;5.486;2023-06-10T13:22:16;24.40;1.00
53880;DHT22;39791;53.184;5.486;2023-06-10T13:24:41;24.60;1.00
53880;DHT22;39791;53.184;5.486;2023-06-10T13:27:09;24.60;1.00
53880;DHT22;39791;53.184;5.486;2023-06-10T13:29:34;24.50;1.00
53880;DHT22;39791;53.184;5.486;2023-06-10T13:32:00;24.50;1.00
53880;DHT22;39791;53.184;5.486;2023-06-10T13:34:25;24.50;1.00
53880;DHT22;39791;53.184;5.486;2023-06-10T13:36:51;24.60;1.00
53880;DHT22;39791;53.184;5.486;2023-06-10T13:39:16;24.40;1.00
53880;DHT22;39791;53.184;5.486;2023-06-10T13:41:43;24.50;1.00
53880;DHT22;39791;53.184;5.486;2023-06-10T13:44:08;24.50;1.00
53880;DHT22;39791;53.184;5.486;2023-06-10T13:46:34;24.50;1.00
53880;DHT22;39791;53.184;5.486;2023-06-10T13:48:59;24.60;1.00
53880;DHT22;39791;53.184;5.486;2023-06-10T13:51:25;24.70;1.00
53880;DHT22;39791;53.184;5.486;2023-06-10T13:53:51;24.60;1.00
53880;DHT22;39791;53.184;5.486;2023-06-10T13:56:18;24.50;1.00
53880;DHT22;39791;53.184;5.486;2023-06-10T13:58:43;24.50;1.00
53880;DHT22;39791;53.184;5.486;2023-06-10T14:01:09;24.60;1.00
53880;DHT22;39791;53.184;5.486;2023-06-10T14:03:35;24.70;1.00
53880;DHT22;39791;53.184;5.486;2023-06-10T14:06:00;24.70;1.00
53880;DHT22;39791;53.184;5.486;2023-06-10T14:08:27;24.60;1.00
53880;DHT22;39791;53.184;5.486;2023-06-10T14:10:52;24.50;1.00
53880;DHT22;39791;53.184;5.486;2023-06-10T14:13:18;24.40;1.00
53880;DHT22;39791;53.184;5.486;2023-06-10T14:15:44;24.40;1.00
53880;DHT22;39791;53.184;5.486;2023-06-10T14:18:09;24.50;1.00
53880;DHT22;39791;53.184;5.486;2023-06-10T14:20:35;24.50;1.00
53880;DHT22;39791;53.184;5.486;2023-06-10T14:23:00;24.40;1.00
53880;DHT22;39791;53.184;5.486;2023-06-10T14:25:26;24.40;1.00
53880;DHT22;39791;53.184;5.486;2023-06-10T14:27:51;24.80;1.00
53880;DHT22;39791;53.184;5.486;2023-06-10T14:30:17;24.40;1.00
53880;DHT22;39791;53.184;5.486;2023-06-10T14:32:43;24.40;1.00
53880;DHT22;39791;53.184;5.486;2023-06-10T14:35:09;24.70;1.00
53880;DHT22;39791;53.184;5.486;2023-06-10T14:37:35;24.30;1.00
53880;DHT22;39791;53.184;5.486;2023-06-10T14:40:01;24.20;1.00
53880;DHT22;39791;53.184;5.486;2023-06-10T14:42:27;24.20;1.00
53880;DHT22;39791;53.184;5.486;2023-06-10T14:44:52;24.20;1.00
53880;DHT22;39791;53.184;5.486;2023-06-10T14:47:18;24.10;1.00
53880;DHT22;39791;53.184;5.486;2023-06-10T14:49:44;24.20;1.00
53880;DHT22;39791;53.184;5.486;2023-06-10T14:52:10;24.10;1.00
53880;DHT22;39791;53.184;5.486;2023-06-10T14:54:35;24.10;1.00
53880;DHT22;39791;53.184;5.486;2023-06-10T14:57:01;24.10;1.00
53880;DHT22;39791;53.184;5.486;2023-06-10T14:59:26;24.10;1.00
53880;DHT22;39791;53.184;5.486;2023-06-10T15:01:52;24.10;1.00
53880;DHT22;39791;53.184;5.486;2023-06-10T15:04:18;24.10;1.00
53880;DHT22;39791;53.184;5.486;2023-06-10T15:06:43;24.30;1.00
53880;DHT22;39791;53.184;5.486;2023-06-10T15:09:09;24.40;1.00
53880;DHT22;39791;53.184;5.486;2023-06-10T15:11:35;24.20;1.00
53880;DHT22;39791;53.184;5.486;2023-06-10T15:14:00;24.00;1.00
53880;DHT22;39791;53.184;5.486;2023-06-10T15:16:26;24.10;1.00
53880;DHT22;39791;53.184;5.486;2023-06-10T15:18:51;24.20;1.00
53880;DHT22;39791;53.184;5.486;2023-06-10T15:21:20;24.20;1.00
53880;DHT22;39791;53.184;5.486;2023-06-10T15:23:45;24.10;1.00
53880;DHT22;39791;53.184;5.486;2023-06-10T15:26:12;24.10;1.00
53880;DHT22;39791;53.184;5.486;2023-06-10T15:28:38;24.20;1.00
53880;DHT22;39791;53.184;5.486;2023-06-10T15:31:03;24.20;1.00
53880;DHT22;39791;53.184;5.486;2023-06-10T15:33:29;24.20;1.00
53880;DHT22;39791;53.184;5.486;2023-06-10T15:35:54;24.20;1.00
53880;DHT22;39791;53.184;5.486;2023-06-10T15:38:20;24.20;1.00
53880;DHT22;39791;53.184;5.486;2023-06-10T15:40:45;24.20;1.00
53880;DHT22;39791;53.184;5.486;2023-06-10T15:43:11;24.20;1.00
53880;DHT22;39791;53.184;5.486;2023-06-10T15:45:38;24.00;1.00